15:39
Airports
History
Links
Donate
Help keep this website running!
PayPal
Bitcoin
This page is community maintained. The information is intended for PC simulator navigation or reference.
Always use approved charts for navigation.
CAH3
Courtenay AirparkEdited 21-Jun-2011
Courtenay Airpark (CAH3)
Courtenay, British Columbia, Canada
(U)
Lat/Lng:49° 40' 46.08" N / 124° 58' 48.78" W
49.679466 / -124.980217
Elevation:9'ft / 3mMSL
ID / ICAO:CAH3
Runways:1
Longest:13-31
Asphalt 628m / 2,059ft
(Edited 2011-06-21) [ Sign in to Edit ]
Nearby Weather15:00 GMT 2018-02-19
Nearby weather at CYQQ, Comox located 4.7 nautical miles from CAH3
Altimeter: 30.23
Visibility: 20.0 statute miles
Wind: 3 knots (from 300°)
Temp: -4°c / 25°f
Humidity: 53.6%

METAR: CYQQ 191500Z 30003KT 20SM FEW030 M04/M12 A3023 RMK SC1 SLP239

(Powered by phpweather)
Nearby VORs <50NM
Nearby NDBs
Runway 13 / 31
Dimensions:627.6 x 17.1m 2059' x 56'ft
Surface:Asphalt
Runway 13 [A]Runway 31 [B]
Heading:149°TH 329°TH
Lat:
Lng:
49° 40' 54.93"N
124° 58' 56.77"W
49° 40' 37.23"N
124° 58' 40.8"W
User Notes and Comments
49° 40' 46.08" N / 124° 58' 48.78" W
Distance To
Airport ID:
Nearby Airports
(R) Comox 4.7 NM
CYQQ ( WX ) ENE 62°
(U) Texada/Gillies Bay 20.6 NM
CYGB E 86°
(C) Campbell River 22.9 NM
CYBL NW 325°
(C) Powell River 23.9 NM
CYPW ( WX ) ENE 63°
(U) Port Alberni 24.8 NM
CBS8 S 174°
(U) Qualicum Beach 35.4 NM
AT4 SE 131°
(U) Tofino/long Beach 54.5 NM
CYAZ SW 220°
VFR Chart
Flight Planning at SkyVector.com